Time;durP1;ratioP1;P1;durP2;ratioP2;P2;SDS_P1;SDS_P2;PMS_P1;PMS_P2;Temp;Humidity;BMP_temperature;BMP_pressure;BME280_temperature;BME280_humidity;BME280_pressure;Samples;Min_cycle;Max_cycle;Signal;HPM_P1;HPM_P2
2023/05/13 00:02:09;;;;;;;2.73;2.53;;;;;;;14.70;52.51;101807.31;4990931;28;97031;-82
2023/05/13 00:04:34;;;;;;;2.30;2.20;;;;;;;14.67;52.55;101839.53;4989891;28;99272;-81
2023/05/13 00:06:59;;;;;;;2.50;2.40;;;;;;;14.66;52.59;101838.00;4988196;28;100347;-79
2023/05/13 00:09:25;;;;;;;4.23;2.27;;;;;;;14.60;52.57;101841.97;4992284;28;97765;-81
2023/05/13 00:11:50;;;;;;;3.10;2.30;;;;;;;14.57;52.64;101807.69;4994967;28;96911;-80
2023/05/13 00:14:16;;;;;;;3.10;2.90;;;;;;;14.59;52.67;101796.88;4999301;28;97677;-82
2023/05/13 00:16:42;;;;;;;2.57;2.47;;;;;;;14.63;52.67;101841.00;4991222;28;97028;-81
2023/05/13 00:19:07;;;;;;;2.73;2.53;;;;;;;14.65;52.65;101841.25;4993123;28;96769;-82
2023/05/13 00:21:33;;;;;;;3.03;2.83;;;;;;;14.57;52.53;101813.25;4990162;28;96959;-82
2023/05/13 00:23:58;;;;;;;5.23;3.23;;;;;;;14.48;52.65;101812.66;4996377;28;97318;-82
2023/05/13 00:26:24;;;;;;;2.40;2.23;;;;;;;14.50;52.53;101797.09;4987732;28;97349;-81
2023/05/13 00:28:49;;;;;;;2.70;2.60;;;;;;;14.49;52.76;101801.09;4996560;28;98978;-83
2023/05/13 00:31:14;;;;;;;2.50;2.40;;;;;;;14.53;52.93;101828.56;4993764;28;97926;-82
2023/05/13 00:33:40;;;;;;;5.20;2.90;;;;;;;14.42;52.85;101793.22;4993705;28;96942;-82
2023/05/13 00:36:06;;;;;;;2.80;2.70;;;;;;;14.41;52.91;101793.72;4994753;28;97834;-80
2023/05/13 00:38:32;;;;;;;3.60;3.30;;;;;;;14.45;52.91;101817.19;4997877;28;97529;-82
2023/05/13 00:40:57;;;;;;;2.70;2.50;;;;;;;14.40;53.00;101847.56;4990733;28;97154;-82
2023/05/13 00:43:22;;;;;;;3.63;3.30;;;;;;;14.42;53.00;101826.47;4990670;28;97052;-81
2023/05/13 00:45:48;;;;;;;2.50;2.30;;;;;;;14.42;52.92;101843.06;4987888;28;100344;-82
2023/05/13 00:48:14;;;;;;;2.93;2.33;;;;;;;14.38;53.03;101805.78;4996191;28;98897;-82
2023/05/13 00:50:43;;;;;;;3.30;2.50;;;;;;;14.34;53.02;101828.16;4989921;28;96811;-81
2023/05/13 00:53:09;;;;;;;2.63;2.43;;;;;;;14.25;53.28;101798.59;4989679;28;97267;-82
2023/05/13 00:55:34;;;;;;;2.70;2.57;;;;;;;14.25;53.33;101809.69;4991764;28;100821;-82
2023/05/13 00:58:00;;;;;;;2.87;2.67;;;;;;;14.27;53.43;101792.56;4988705;28;99988;-81
2023/05/13 01:00:28;;;;;;;2.47;2.30;;;;;;;14.26;53.30;101805.66;4985190;28;97279;-82
2023/05/13 01:03:11;;;;;;;10.80;3.07;;;;;;;14.24;53.81;101835.09;4992614;28;97275;-82
2023/05/13 01:06:05;;;;;;;2.63;2.50;;;;;;;14.22;53.32;101796.03;5005903;28;101062;-82
2023/05/13 01:08:48;;;;;;;2.50;2.37;;;;;;;14.21;53.34;101798.06;4969432;28;96725;-82
2023/05/13 01:11:20;;;;;;;2.53;2.33;;;;;;;14.18;53.42;101801.03;4995136;28;97138;-82
2023/05/13 01:13:48;;;;;;;2.73;2.53;;;;;;;14.15;53.43;101800.00;4993029;28;97087;-82
2023/05/13 01:16:20;;;;;;;4.43;2.73;;;;;;;14.17;53.73;101796.78;4991722;28;100693;-82
2023/05/13 01:18:51;;;;;;;3.00;2.80;;;;;;;14.14;53.56;101806.81;5006533;28;99310;-81
2023/05/13 01:21:24;;;;;;;2.97;2.77;;;;;;;14.12;53.63;101806.53;4993353;28;97413;-83
2023/05/13 01:23:49;;;;;;;2.70;2.60;;;;;;;14.08;53.41;101822.59;4988681;28;96973;-82
2023/05/13 01:26:15;;;;;;;3.13;2.83;;;;;;;14.04;53.52;101837.91;4992977;28;100213;-82
2023/05/13 01:28:40;;;;;;;3.17;2.87;;;;;;;13.95;53.55;101833.28;4997587;28;100348;-82
2023/05/13 01:31:09;;;;;;;2.50;2.40;;;;;;;13.99;53.47;101797.84;4991232;28;96907;-82
2023/05/13 01:33:35;;;;;;;2.90;2.63;;;;;;;14.00;53.68;101801.38;4988801;28;97863;-82
2023/05/13 01:36:01;;;;;;;2.97;2.73;;;;;;;13.97;53.57;101811.41;4992333;28;99463;-82
2023/05/13 01:38:28;;;;;;;3.07;2.77;;;;;;;13.87;53.66;101857.06;4985878;28;100806;-82
2023/05/13 01:40:54;;;;;;;3.43;3.13;;;;;;;13.94;53.69;101809.63;4991626;28;97115;-81
2023/05/13 01:43:20;;;;;;;3.40;3.07;;;;;;;13.93;53.70;101821.19;4993923;28;97323;-82
2023/05/13 01:45:45;;;;;;;2.80;2.60;;;;;;;13.93;53.72;101815.66;4988315;28;99228;-82
2023/05/13 01:48:10;;;;;;;2.63;2.43;;;;;;;13.93;53.59;101810.88;4988196;28;99195;-82
2023/05/13 01:50:36;;;;;;;3.03;2.83;;;;;;;13.88;53.62;101811.56;4992116;28;96700;-82
2023/05/13 01:53:01;;;;;;;2.47;2.37;;;;;;;13.92;53.65;101811.34;4989863;28;96987;-83
2023/05/13 01:55:26;;;;;;;3.60;3.30;;;;;;;13.90;53.63;101824.91;4991132;28;96620;-81
2023/05/13 01:57:52;;;;;;;3.13;2.70;;;;;;;13.89;53.87;101807.53;4988970;28;98916;-81
2023/05/13 02:00:17;;;;;;;2.70;2.50;;;;;;;13.88;53.62;101830.94;4988613;28;97219;-81
2023/05/13 02:02:43;;;;;;;2.83;2.63;;;;;;;13.90;53.87;101817.38;4981214;28;97019;-82
2023/05/13 02:05:08;;;;;;;4.17;2.90;;;;;;;13.84;53.78;101813.03;4988547;28;99210;-82
2023/05/13 02:07:34;;;;;;;3.10;2.93;;;;;;;13.83;53.89;101817.03;4991080;28;99344;-82
2023/05/13 02:09:59;;;;;;;2.90;2.67;;;;;;;13.79;53.87;101797.88;4988279;28;96842;-82
2023/05/13 02:12:26;;;;;;;2.73;2.60;;;;;;;13.79;53.77;101819.25;4986449;28;96919;-82
2023/05/13 02:14:54;;;;;;;2.83;2.63;;;;;;;13.77;53.96;101814.22;4991588;28;97476;-83
2023/05/13 02:17:20;;;;;;;2.50;2.30;;;;;;;13.75;53.78;101799.34;4987535;28;100679;-82
2023/05/13 02:19:46;;;;;;;3.00;2.80;;;;;;;13.73;53.80;101826.72;4987565;28;96956;-82
2023/05/13 02:22:11;;;;;;;2.70;2.60;;;;;;;13.63;53.97;101815.03;4992965;28;97001;-82
2023/05/13 02:24:39;;;;;;;3.57;2.70;;;;;;;13.63;54.01;101803.97;4992717;28;98009;-82
2023/05/13 02:27:07;;;;;;;2.43;2.23;;;;;;;13.68;54.17;101800.53;4985799;28;100241;-83
2023/05/13 02:29:33;;;;;;;2.80;2.60;;;;;;;13.68;54.02;101810.81;4990283;28;97002;-82
2023/05/13 02:31:58;;;;;;;3.50;3.30;;;;;;;13.73;53.99;101815.66;4991741;28;100485;-83
2023/05/13 02:34:24;;;;;;;4.90;2.77;;;;;;;13.73;53.96;101810.91;4987824;28;97950;-83
2023/05/13 02:36:49;;;;;;;2.60;2.40;;;;;;;13.74;54.00;101815.16;4983238;28;106220;-83
2023/05/13 02:39:14;;;;;;;3.00;2.80;;;;;;;13.72;53.93;101814.91;4988665;28;97292;-83
2023/05/13 02:41:40;;;;;;;3.00;2.80;;;;;;;13.68;54.16;101806.06;4991114;28;97205;-82
2023/05/13 02:44:05;;;;;;;3.00;2.80;;;;;;;13.65;54.42;101797.97;4985894;28;98571;-83
2023/05/13 02:46:30;;;;;;;2.60;2.40;;;;;;;13.59;54.27;101808.97;4987295;28;97984;-83
2023/05/13 02:49:05;;;;;;;4.03;3.20;;;;;;;13.62;54.78;101843.19;4980357;28;97108;-83
2023/05/13 02:51:52;;;;;;;2.93;2.73;;;;;;;13.60;55.25;101809.72;4988353;28;96839;-83
2023/05/13 02:54:17;;;;;;;2.63;2.53;;;;;;;13.50;54.26;101856.09;4990343;28;97731;-83
2023/05/13 02:56:43;;;;;;;3.10;2.90;;;;;;;13.37;54.56;101819.75;4993186;28;98911;-82
2023/05/13 02:59:23;;;;;;;2.53;2.43;;;;;;;13.24;55.51;101861.53;4984151;28;96853;-82
2023/05/13 03:01:54;;;;;;;2.63;2.43;;;;;;;13.29;54.93;101869.16;4989403;28;96884;-83
2023/05/13 03:04:19;;;;;;;3.00;2.80;;;;;;;13.25;54.78;101816.09;4989035;28;99480;-83
2023/05/13 03:06:46;;;;;;;2.87;2.67;;;;;;;13.28;54.71;101828.94;4990075;28;97543;-82
2023/05/13 03:09:14;;;;;;;2.83;2.63;;;;;;;13.33;54.89;101833.00;4999339;22;97301;-82
2023/05/13 03:11:39;;;;;;;2.33;2.23;;;;;;;13.32;54.55;101848.84;4988859;28;96802;-82
2023/05/13 03:14:13;;;;;;;3.17;2.87;;;;;;;13.23;54.79;101810.28;4987436;28;97706;-82
2023/05/13 03:16:38;;;;;;;3.00;2.80;;;;;;;13.14;54.96;101815.94;4987059;28;97768;-82
2023/05/13 03:19:04;;;;;;;3.30;3.00;;;;;;;13.10;55.05;101856.06;4989641;28;97499;-82
2023/05/13 03:21:29;;;;;;;3.23;2.93;;;;;;;13.10;55.30;101854.06;4989257;28;97200;-83
2023/05/13 03:23:55;;;;;;;3.13;2.93;;;;;;;13.08;55.33;101873.13;4986246;28;97262;-82
2023/05/13 03:26:23;;;;;;;3.63;3.33;;;;;;;12.96;55.29;101805.09;4990829;28;100080;-83
2023/05/13 03:28:48;;;;;;;2.60;2.40;;;;;;;13.05;55.38;101870.56;4984577;28;97793;-83
2023/05/13 03:31:16;;;;;;;3.03;2.83;;;;;;;12.94;55.26;101837.19;4986511;28;97177;-83
2023/05/13 03:33:42;;;;;;;3.10;2.90;;;;;;;13.08;55.26;101847.50;4983377;28;100385;-83
2023/05/13 03:36:10;;;;;;;3.50;2.77;;;;;;;13.07;55.40;101846.72;4993161;28;97660;-83
2023/05/13 03:38:36;;;;;;;3.50;2.70;;;;;;;13.12;55.29;101826.72;4988723;28;97283;-83
2023/05/13 03:41:04;;;;;;;2.97;2.77;;;;;;;13.11;55.31;101879.69;4989368;28;97299;-83
2023/05/13 03:43:29;;;;;;;4.23;2.60;;;;;;;13.05;55.36;101829.09;4986007;28;97165;-83
2023/05/13 03:45:55;;;;;;;2.77;2.60;;;;;;;13.02;55.24;101838.34;5007220;28;100449;-82
2023/05/13 03:48:20;;;;;;;3.17;2.90;;;;;;;12.97;55.49;101848.06;4989020;28;97328;-83
2023/05/13 03:50:45;;;;;;;3.10;2.90;;;;;;;13.01;55.35;101845.88;4990692;28;97123;-83
2023/05/13 03:53:11;;;;;;;2.40;2.00;;;;;;;13.04;55.43;101842.13;4994609;28;100862;-83
2023/05/13 03:55:36;;;;;;;3.40;3.20;;;;;;;13.07;55.45;101852.25;4990021;28;97283;-82
2023/05/13 03:58:13;;;;;;;3.33;3.03;;;;;;;13.08;55.97;101848.25;4994005;28;96941;-82
2023/05/13 04:00:39;;;;;;;3.10;2.80;;;;;;;13.09;55.36;101838.72;4991056;28;97362;-82
2023/05/13 04:03:04;;;;;;;2.90;2.70;;;;;;;13.08;55.34;101834.44;4988039;28;97733;-83
2023/05/13 04:05:29;;;;;;;3.10;2.80;;;;;;;13.07;55.43;101851.50;4986040;28;100427;-83
2023/05/13 04:07:55;;;;;;;2.93;2.60;;;;;;;13.06;55.36;101836.16;4992694;28;97946;-82
2023/05/13 04:10:23;;;;;;;2.60;2.47;;;;;;;13.07;55.49;101840.44;4988803;28;97553;-82
2023/05/13 04:12:52;;;;;;;3.33;2.70;;;;;;;13.08;55.57;101834.44;4988881;28;97325;-83
2023/05/13 04:15:20;;;;;;;2.80;2.60;;;;;;;13.13;55.49;101842.03;4989870;28;102654;-82
2023/05/13 04:17:46;;;;;;;3.27;3.07;;;;;;;13.13;55.51;101852.31;5005810;22;96871;-83
2023/05/13 04:20:11;;;;;;;3.77;2.63;;;;;;;13.18;55.32;101849.66;4972964;28;97255;-82
2023/05/13 04:22:36;;;;;;;2.50;2.40;;;;;;;13.16;55.33;101840.31;4972121;28;97520;-82
2023/05/13 04:25:02;;;;;;;3.20;2.90;;;;;;;13.15;55.59;101839.56;4968715;28;99217;-83
2023/05/13 04:27:28;;;;;;;2.83;2.67;;;;;;;13.17;55.45;101839.84;4987106;28;96983;-83
2023/05/13 04:29:53;;;;;;;2.63;2.53;;;;;;;13.22;55.50;101839.16;4982443;28;97327;-83
2023/05/13 04:32:21;;;;;;;2.53;2.23;;;;;;;13.23;55.47;101848.22;4979222;28;99261;-83
2023/05/13 04:34:50;;;;;;;4.73;2.60;;;;;;;13.26;55.61;101848.00;4963716;28;97903;-83
2023/05/13 04:37:16;;;;;;;2.47;2.37;;;;;;;13.28;55.61;101848.28;4961168;28;96920;-82
2023/05/13 04:40:11;;;;;;;5.83;2.70;;;;;;;13.26;56.15;101897.75;4970099;28;96730;-81
2023/05/13 04:42:57;;;;;;;3.97;3.20;;;;;;;13.32;55.51;101890.28;4967306;28;99252;-82
2023/05/13 04:45:23;;;;;;;2.83;2.43;;;;;;;13.41;55.43;101892.94;4960391;28;100864;-82
2023/05/13 04:47:48;;;;;;;3.30;3.00;;;;;;;13.43;55.40;101884.91;4965583;28;97222;-80
2023/05/13 04:50:14;;;;;;;2.50;2.30;;;;;;;13.43;55.26;101848.25;4966958;28;97654;-81
2023/05/13 04:52:41;;;;;;;3.87;2.43;;;;;;;13.51;55.28;101852.88;4964113;28;99118;-80
2023/05/13 04:55:08;;;;;;;2.83;2.60;;;;;;;13.49;55.42;101898.84;4965267;28;99143;-80
2023/05/13 04:57:33;;;;;;;3.70;2.63;;;;;;;13.49;55.45;101873.94;4962657;28;97020;-81
2023/05/13 04:59:59;;;;;;;2.67;2.53;;;;;;;13.52;55.72;101872.97;4965614;28;97123;-80
2023/05/13 05:02:25;;;;;;;3.03;2.83;;;;;;;13.56;55.54;101870.03;4961847;28;99283;-80
2023/05/13 05:04:50;;;;;;;2.97;2.77;;;;;;;13.60;55.68;101876.88;4963797;28;97623;-80
2023/05/13 05:07:15;;;;;;;2.93;2.83;;;;;;;13.67;55.53;101870.16;4957384;28;97622;-83
2023/05/13 05:09:41;;;;;;;3.70;3.40;;;;;;;13.69;55.58;101875.97;4965631;28;97339;-83
2023/05/13 05:12:07;;;;;;;2.90;2.70;;;;;;;13.78;55.58;101893.16;4960526;28;97725;-83
2023/05/13 05:14:32;;;;;;;3.03;2.70;;;;;;;13.83;55.68;101877.88;4962444;28;97143;-82
2023/05/13 05:16:57;;;;;;;2.90;2.70;;;;;;;13.88;55.60;101888.25;4957372;28;97458;-83
2023/05/13 05:19:25;;;;;;;5.30;3.03;;;;;;;13.89;55.66;101871.16;4963557;28;98596;-83
2023/05/13 05:21:51;;;;;;;3.57;2.80;;;;;;;13.94;55.63;101876.03;4962929;28;97455;-83
2023/05/13 05:24:17;;;;;;;2.47;2.37;;;;;;;13.94;55.58;101875.25;4978630;28;99271;-83
2023/05/13 05:27:02;;;;;;;3.17;2.97;;;;;;;13.96;56.12;101933.63;4963368;28;96926;-83
2023/05/13 05:29:27;;;;;;;2.90;2.60;;;;;;;14.02;55.76;101918.63;4958729;28;97571;-83
2023/05/13 05:31:52;;;;;;;2.90;2.50;;;;;;;14.08;55.64;101919.47;4960146;28;98326;-82
2023/05/13 05:34:18;;;;;;;3.17;2.57;;;;;;;14.15;55.74;101885.06;4960754;28;98105;-83
2023/05/13 05:36:43;;;;;;;4.13;2.80;;;;;;;14.20;55.78;101893.41;4965982;28;97142;-83
2023/05/13 05:39:09;;;;;;;3.00;2.80;;;;;;;14.30;55.89;101871.91;4960871;28;96977;-83
2023/05/13 05:41:53;;;;;;;3.40;3.10;;;;;;;14.47;56.37;101897.75;4962932;28;100403;-83
2023/05/13 05:44:18;;;;;;;3.27;2.77;;;;;;;14.55;55.66;101879.44;4974925;28;99220;-82
2023/05/13 05:46:44;;;;;;;3.33;3.00;;;;;;;14.64;55.50;101890.34;4961185;28;96953;-83
2023/05/13 05:49:12;;;;;;;2.40;2.30;;;;;;;14.61;55.75;101923.81;4974085;28;96700;-83
2023/05/13 05:51:40;;;;;;;3.03;2.83;;;;;;;14.70;55.81;101871.75;4961714;28;99360;-82
2023/05/13 05:54:06;;;;;;;2.70;2.50;;;;;;;14.76;55.50;101952.94;4962818;28;96882;-83
2023/05/13 05:56:31;;;;;;;2.43;2.27;;;;;;;14.86;55.65;101923.78;4961549;28;96748;-82
2023/05/13 05:59:06;;;;;;;2.83;2.67;;;;;;;14.87;55.95;101861.56;4960476;28;97211;-83
2023/05/13 06:01:35;;;;;;;2.83;2.73;;;;;;;15.08;55.53;101925.97;4960788;28;99874;-82
2023/05/13 06:04:02;;;;;;;2.80;2.60;;;;;;;15.11;55.48;101905.59;4965857;28;99109;-82
2023/05/13 06:06:27;;;;;;;3.27;2.57;;;;;;;15.22;55.44;101891.81;4962914;28;97236;-82
2023/05/13 06:08:52;;;;;;;3.13;2.93;;;;;;;15.28;55.23;101938.97;4963142;28;98949;-83
2023/05/13 06:11:18;;;;;;;3.93;2.87;;;;;;;15.44;55.03;101916.19;4959897;28;104698;-83
2023/05/13 06:13:46;;;;;;;2.50;2.40;;;;;;;15.52;54.93;101890.25;4958903;28;97699;-83
2023/05/13 06:16:11;;;;;;;2.47;2.33;;;;;;;15.63;54.77;101923.59;4965875;28;97100;-83
2023/05/13 06:18:36;;;;;;;3.63;2.60;;;;;;;15.73;54.73;101886.06;4964308;28;97184;-84
2023/05/13 06:21:02;;;;;;;3.60;2.80;;;;;;;15.78;54.53;101895.66;4962644;28;98338;-83
2023/05/13 06:23:27;;;;;;;2.70;2.60;;;;;;;15.89;54.61;101917.16;4964044;28;100507;-82
2023/05/13 06:25:53;;;;;;;2.53;2.40;;;;;;;15.91;54.35;101868.22;4960138;28;97791;-83
2023/05/13 06:28:19;;;;;;;2.77;2.57;;;;;;;16.06;54.23;101929.06;4967601;28;97046;-83
2023/05/13 06:30:44;;;;;;;2.23;2.10;;;;;;;16.20;54.39;101886.47;4963909;28;99473;-83
2023/05/13 06:33:11;;;;;;;3.43;2.73;;;;;;;16.26;54.19;101868.56;4967126;28;101211;-83
2023/05/13 06:35:49;;;;;;;2.60;2.50;;;;;;;16.35;53.76;101923.88;4965992;28;97306;-81
2023/05/13 06:38:26;;;;;;;2.60;2.40;;;;;;;16.57;53.28;101891.84;4974212;28;97186;-83
2023/05/13 06:40:51;;;;;;;2.20;2.10;;;;;;;16.62;53.59;101889.06;4958008;28;100883;-83
2023/05/13 06:43:19;;;;;;;2.53;2.33;;;;;;;16.70;53.37;101933.81;4964377;28;97644;-83
2023/05/13 06:45:44;;;;;;;2.40;2.20;;;;;;;16.86;53.17;101963.66;4959580;28;96720;-83
2023/05/13 06:48:09;;;;;;;2.50;2.30;;;;;;;16.95;52.92;101880.00;4960523;28;96713;-85
2023/05/13 06:50:35;;;;;;;3.17;2.87;;;;;;;17.03;52.91;101894.91;4974427;28;99966;-83
2023/05/13 06:53:00;;;;;;;3.90;2.30;;;;;;;17.16;52.78;101911.81;4967302;28;99184;-83
2023/05/13 06:55:26;;;;;;;3.30;2.83;;;;;;;17.30;52.39;101896.13;4962022;28;96884;-82
2023/05/13 06:57:51;;;;;;;2.73;2.43;;;;;;;17.40;52.74;101923.16;4964645;28;96712;-82
2023/05/13 07:00:17;;;;;;;3.10;2.90;;;;;;;17.52;52.64;101912.78;4960444;28;100272;-82
2023/05/13 07:02:42;;;;;;;2.70;2.50;;;;;;;17.51;52.45;101892.56;4961477;28;100201;-82
2023/05/13 07:05:09;;;;;;;3.27;2.47;;;;;;;17.58;51.93;101896.84;4959787;28;96935;-83
2023/05/13 07:07:35;;;;;;;2.80;2.60;;;;;;;17.77;51.85;101918.03;4960105;28;97697;-83
2023/05/13 07:10:00;;;;;;;3.93;2.37;;;;;;;17.87;51.64;101954.69;4961823;28;100195;-83
2023/05/13 07:12:25;;;;;;;2.60;2.40;;;;;;;17.95;51.49;101917.44;4967372;28;99993;-83
2023/05/13 07:14:51;;;;;;;2.57;2.37;;;;;;;18.05;51.32;101889.28;4965654;28;97267;-82
2023/05/13 07:17:16;;;;;;;3.37;2.50;;;;;;;18.15;51.34;101873.81;4961200;28;97026;-83
2023/05/13 07:19:42;;;;;;;6.20;2.27;;;;;;;18.25;51.06;101902.84;4961507;28;96872;-82
2023/05/13 07:22:07;;;;;;;3.50;2.90;;;;;;;18.33;50.87;101881.50;4966949;28;107239;-83
2023/05/13 07:24:35;;;;;;;4.03;2.57;;;;;;;18.52;50.16;101890.81;4964645;28;96832;-83
2023/05/13 07:27:06;;;;;;;2.90;2.70;;;;;;;18.57;50.29;101931.81;4962408;28;97219;-83
2023/05/13 07:29:32;;;;;;;2.73;2.53;;;;;;;18.69;50.03;101883.06;4958466;28;100169;-84
2023/05/13 07:32:03;;;;;;;2.63;2.37;;;;;;;18.79;49.80;101875.88;4975577;28;99391;-83
2023/05/13 07:34:28;;;;;;;2.70;2.23;;;;;;;18.91;50.23;101885.69;4966059;28;96987;-82
2023/05/13 07:36:53;;;;;;;3.50;2.73;;;;;;;18.97;50.28;101875.22;4963157;28;96604;-83
2023/05/13 07:39:18;;;;;;;4.03;2.53;;;;;;;19.03;49.80;101878.69;4978677;28;103358;-83
2023/05/13 07:41:44;;;;;;;2.70;2.50;;;;;;;19.11;49.46;101864.94;4964801;28;97017;-84
2023/05/13 07:44:14;;;;;;;4.60;3.00;;;;;;;19.22;48.75;101884.38;4978341;28;97097;-82
2023/05/13 07:46:39;;;;;;;5.03;2.47;;;;;;;19.30;48.88;101888.06;4967270;28;97434;-83
2023/05/13 07:49:07;;;;;;;3.03;2.80;;;;;;;19.41;48.70;101888.00;4975785;28;100571;-83
2023/05/13 07:51:33;;;;;;;2.33;2.17;;;;;;;19.49;48.51;101888.91;4978086;28;99167;-83
2023/05/13 07:53:58;;;;;;;2.87;2.67;;;;;;;19.54;48.50;101881.75;4966238;28;96820;-82
2023/05/13 07:56:24;;;;;;;2.73;2.53;;;;;;;19.65;48.48;101890.00;4970398;28;96819;-84
2023/05/13 07:58:49;;;;;;;2.47;2.23;;;;;;;19.74;48.02;101884.06;4967291;28;97219;-83
2023/05/13 08:01:15;;;;;;;3.00;2.30;;;;;;;19.86;47.95;101872.22;4962981;28;100010;-84
2023/05/13 08:03:40;;;;;;;5.70;2.93;;;;;;;19.97;47.53;101885.25;4967406;28;97305;-84
2023/05/13 08:06:06;;;;;;;2.90;2.70;;;;;;;20.08;47.58;101885.13;4968003;28;97236;-83
2023/05/13 08:08:32;;;;;;;2.80;2.60;;;;;;;20.19;47.76;101877.34;4979495;28;99773;-84
2023/05/13 08:10:57;;;;;;;2.43;2.23;;;;;;;20.33;47.73;101869.81;4964889;28;100125;-83
2023/05/13 08:13:22;;;;;;;2.73;2.53;;;;;;;20.42;47.22;101874.25;4971449;28;97613;-85
2023/05/13 08:15:48;;;;;;;3.40;3.00;;;;;;;20.50;46.81;101880.72;4968248;28;100157;-83
2023/05/13 08:18:14;;;;;;;2.70;2.50;;;;;;;20.58;46.86;101876.00;4962763;28;97264;-84
2023/05/13 08:20:40;;;;;;;2.83;2.63;;;;;;;20.69;46.95;101907.34;4967783;28;97119;-84
2023/05/13 08:23:06;;;;;;;2.57;2.30;;;;;;;20.83;47.11;101885.78;4963358;28;97044;-84
2023/05/13 08:25:31;;;;;;;3.53;2.40;;;;;;;20.93;46.80;101878.47;4965591;28;97316;-84
2023/05/13 08:27:56;;;;;;;3.93;2.50;;;;;;;21.04;47.10;101871.94;4964720;28;99450;-84
2023/05/13 08:30:22;;;;;;;2.90;2.70;;;;;;;21.06;46.62;101914.91;4968112;28;103098;-83
2023/05/13 08:32:47;;;;;;;3.73;2.60;;;;;;;21.16;46.49;101910.41;4964942;28;97331;-84
2023/05/13 08:35:12;;;;;;;2.60;2.50;;;;;;;21.18;46.23;101859.47;4968845;28;97146;-83
2023/05/13 08:37:38;;;;;;;4.30;2.57;;;;;;;21.34;45.45;101909.56;4963598;28;99586;-84
2023/05/13 08:40:05;;;;;;;2.40;2.23;;;;;;;21.46;45.59;101870.91;4966360;28;98910;-84
2023/05/13 08:42:37;;;;;;;5.23;2.37;;;;;;;21.59;44.50;101873.69;4964869;28;96815;-83
2023/05/13 08:45:06;;;;;;;2.83;2.63;;;;;;;21.71;45.75;101860.94;4962776;28;96779;-82
2023/05/13 08:47:42;;;;;;;3.30;2.97;;;;;;;21.85;44.73;101870.88;4981092;28;101043;-83
2023/05/13 08:50:08;;;;;;;2.83;2.63;;;;;;;22.01;44.62;101861.38;4966113;28;100630;-84
2023/05/13 08:52:33;;;;;;;2.50;2.17;;;;;;;22.07;44.80;101870.41;4970794;28;97517;-84
2023/05/13 08:55:02;;;;;;;3.10;2.80;;;;;;;22.22;44.88;101873.34;4963999;28;97365;-84
2023/05/13 08:57:27;;;;;;;2.20;2.10;;;;;;;22.29;44.45;101867.09;4963906;28;98251;-83
2023/05/13 08:59:52;;;;;;;3.73;2.63;;;;;;;22.34;44.18;101865.44;4968841;28;98929;-84
2023/05/13 09:02:18;;;;;;;3.87;3.47;;;;;;;22.46;43.89;101863.88;4966531;28;97140;-84
2023/05/13 09:04:45;;;;;;;2.97;2.77;;;;;;;22.57;43.93;101871.25;4964304;28;97599;-84
2023/05/13 09:07:11;;;;;;;3.93;2.57;;;;;;;22.75;43.57;101878.75;4967997;28;100331;-83
2023/05/13 09:09:36;;;;;;;5.87;3.07;;;;;;;22.89;43.19;101866.88;4967575;28;99764;-83
2023/05/13 09:12:02;;;;;;;3.47;2.80;;;;;;;23.00;43.26;101860.22;4965500;28;96786;-84
2023/05/13 09:14:31;;;;;;;2.43;2.30;;;;;;;23.21;42.85;101857.38;4968701;28;97134;-85
2023/05/13 09:16:57;;;;;;;3.27;2.60;;;;;;;23.36;43.25;101863.88;4964729;28;101629;-84
2023/05/13 09:19:23;;;;;;;2.60;2.40;;;;;;;23.54;43.31;101864.91;4964208;28;100145;-83
2023/05/13 09:21:49;;;;;;;2.97;2.20;;;;;;;23.76;42.58;101867.81;4962307;28;97174;-84
2023/05/13 09:24:20;;;;;;;3.20;2.90;;;;;;;23.95;42.54;101866.75;4979920;28;97645;-84
2023/05/13 09:26:47;;;;;;;5.13;2.30;;;;;;;24.07;41.98;101867.97;4962497;28;97255;-84
2023/05/13 09:29:29;;;;;;;5.47;2.40;;;;;;;24.08;40.08;101873.03;4958982;28;100495;-84
2023/05/13 09:31:59;;;;;;;2.63;2.43;;;;;;;24.24;41.90;101871.00;4961253;28;97027;-83
2023/05/13 09:34:29;;;;;;;4.97;2.10;;;;;;;24.39;40.88;101873.84;4959029;28;96875;-84
2023/05/13 09:37:02;;;;;;;5.33;2.60;;;;;;;24.55;41.35;101872.56;4962567;28;100716;-83
2023/05/13 09:39:30;;;;;;;2.37;2.20;;;;;;;24.70;41.28;101881.00;4962302;28;96897;-83
2023/05/13 09:41:55;;;;;;;2.53;2.40;;;;;;;24.81;40.72;101880.66;4965128;28;97474;-83
2023/05/13 09:44:21;;;;;;;2.07;1.93;;;;;;;24.92;40.41;101863.38;4963231;28;97374;-84
2023/05/13 09:46:47;;;;;;;2.63;2.43;;;;;;;25.01;40.25;101871.25;4955778;28;97909;-84
2023/05/13 09:49:14;;;;;;;5.60;2.10;;;;;;;25.07;40.05;101871.81;4962424;28;97879;-82
2023/05/13 09:51:42;;;;;;;6.20;2.77;;;;;;;25.18;39.89;101865.03;4960319;28;96851;-83
2023/05/13 09:54:07;;;;;;;2.40;2.30;;;;;;;25.21;39.92;101858.25;4965059;28;96835;-82
2023/05/13 09:56:34;;;;;;;2.10;2.00;;;;;;;25.25;39.72;101883.97;4959667;28;98100;-84
2023/05/13 09:59:01;;;;;;;4.47;2.40;;;;;;;25.16;39.45;101873.31;4961103;28;97405;-83
2023/05/13 10:01:27;;;;;;;3.70;2.33;;;;;;;25.10;39.07;101887.56;4959865;28;97369;-83
2023/05/13 10:04:00;;;;;;;2.10;2.00;;;;;;;25.17;38.58;101869.91;4959401;28;96864;-81
2023/05/13 10:06:28;;;;;;;2.97;2.30;;;;;;;25.25;38.78;101887.53;4960145;28;97499;-83
2023/05/13 10:08:57;;;;;;;2.80;2.60;;;;;;;25.16;38.38;101876.13;4961917;28;96890;-82
2023/05/13 10:11:24;;;;;;;5.43;2.53;;;;;;;25.12;38.38;101876.50;4958460;28;96776;-84
2023/05/13 10:13:54;;;;;;;2.40;2.20;;;;;;;25.11;38.79;101875.00;4962316;28;97137;-82
2023/05/13 10:16:20;;;;;;;2.10;2.00;;;;;;;25.19;38.86;101875.72;4957540;28;99421;-82
2023/05/13 10:18:46;;;;;;;4.43;2.90;;;;;;;25.30;38.27;101874.56;4969748;28;101675;-85
2023/05/13 10:21:12;;;;;;;2.77;2.10;;;;;;;25.39;38.10;101868.38;4957571;28;97126;-83
2023/05/13 10:23:38;;;;;;;3.93;2.33;;;;;;;25.46;38.49;101876.09;4959434;28;97375;-82
2023/05/13 10:26:06;;;;;;;2.50;2.33;;;;;;;25.39;37.31;101861.97;4956562;28;99561;-83
2023/05/13 10:28:31;;;;;;;3.77;2.37;;;;;;;25.40;37.72;101871.94;4963488;28;97420;-83
2023/05/13 10:30:56;;;;;;;2.37;2.10;;;;;;;25.51;37.72;101875.09;4962237;28;96566;-82
2023/05/13 10:33:23;;;;;;;2.30;2.10;;;;;;;25.47;37.12;101866.28;4960850;28;97439;-82
2023/05/13 10:36:04;;;;;;;2.20;2.03;;;;;;;25.47;36.41;101871.94;4959898;28;100697;-83
2023/05/13 10:39:03;;;;;;;2.80;2.10;;;;;;;25.55;36.21;101863.47;4955594;28;97250;-81
2023/05/13 10:41:47;;;;;;;4.07;2.03;;;;;;;25.54;37.66;101861.94;4958315;28;96893;-82
2023/05/13 10:44:13;;;;;;;2.43;2.23;;;;;;;25.50;37.19;101853.91;4956676;28;99537;-83
2023/05/13 10:46:42;;;;;;;2.53;2.33;;;;;;;25.58;37.22;101865.13;4957334;28;97410;-83
2023/05/13 10:49:14;;;;;;;6.00;2.63;;;;;;;25.56;36.10;101865.72;4954742;28;97296;-83
2023/05/13 10:51:48;;;;;;;5.97;2.33;;;;;;;25.63;37.36;101862.13;4958371;28;97194;-83
2023/05/13 10:54:19;;;;;;;2.23;2.13;;;;;;;25.86;36.29;101857.13;4954245;28;97328;-83
2023/05/13 10:56:57;;;;;;;3.60;2.80;;;;;;;25.99;37.03;101844.84;4974212;28;99670;-83
2023/05/13 10:59:23;;;;;;;2.40;2.20;;;;;;;26.19;36.77;101855.06;4958775;28;99354;-84
2023/05/13 11:01:48;;;;;;;2.90;2.13;;;;;;;26.34;36.11;101859.88;4958775;28;97218;-84
2023/05/13 11:04:16;;;;;;;3.20;2.30;;;;;;;26.30;35.55;101860.28;4958576;28;99173;-84
2023/05/13 11:06:45;;;;;;;2.73;2.53;;;;;;;26.26;34.88;101842.25;4956295;28;98740;-83
2023/05/13 11:09:19;;;;;;;3.90;2.50;;;;;;;26.15;34.15;101837.81;4972877;28;98716;-82
2023/05/13 11:11:51;;;;;;;2.17;1.97;;;;;;;26.15;35.58;101839.88;4956517;28;97013;-81
2023/05/13 11:14:21;;;;;;;2.43;2.10;;;;;;;26.08;35.28;101847.03;4961078;28;96971;-83
2023/05/13 11:17:03;;;;;;;2.77;1.80;;;;;;;26.02;34.62;101847.25;4957382;28;98141;-82
2023/05/13 11:19:32;;;;;;;2.30;1.80;;;;;;;26.19;35.58;101852.25;4959111;28;97124;-83
2023/05/13 11:22:03;;;;;;;7.00;2.17;;;;;;;26.41;34.70;101845.72;4957439;28;97533;-83
2023/05/13 11:24:28;;;;;;;4.20;2.03;;;;;;;26.51;34.80;101835.31;4953198;28;97217;-84
2023/05/13 11:26:58;;;;;;;1.87;1.77;;;;;;;26.60;34.28;101837.47;4959993;28;100493;-83